To NAV CANADA Home Page Login to a new session Search on AWWS site Feedback and Comments Disclaimer Vers la page française équivalente Tips FAQ What's new on the site To the Forecasts and Observations / NOTAM section To "File a Flight Plan" website Publications and other links Update of the User's profile FIC Telephone Numbers My Weather Data Folder Route Weather Data Regional Weather Data Local Weather Data To the Forecasts and Observations / NOTAM section
Request Generated 01/17/2017 at 04:56:20 UTC . Weather information available at that time is displayed.

METAR/TAF

SASKATOON/JOHN G. DIEFENBAKER INTL/SK    

METAR CYXE 170400Z 19011KT 15SM FEW210 M04/M08 A2974 RMK CI2 SLP108=
METAR CYXE 170300Z 20013KT 15SM FEW210 M04/M08 A2978 RMK CI2 SLP122=
METAR CYXE 170200Z 21008KT 15SM SCT250 M05/M09 A2984 RMK CI3 SLP142=

TAF CYXE 162342Z 1700/1724 22012KT P6SM BKN250
BECMG 1703/1705 18015KT
BECMG 1715/1717 21010KT
RMK NXT FCST BY 170600Z=
Your time UTC time
Weather data provided by Environment Canada and NAV CANADA